Login to view Products
 
Sunday, May 31, 2020 (13:45 UTC)
Dubai International Airport
Last Updated: 31-May-2020 (13:44Z)
Wind Dir/Speed: NW at 13 kt
Temperature: 35.3°C
Rel. Humidity: 52 %
Pressure: 1003.2 hPa
Visibility: 7000 m
  • METAR OMDB 311330Z 33013KT 7000 NSC 36/24 Q1003 NOSIG
  • TAF OMDB 311053Z 3112/0118 30015KT 8000 NSC PROB30 3112/3116 4000 DU BECMG 3115/3117 14005KT BECMG 0103/0105 20015KT PROB30 0103/0109 3000 DU BECMG 0107/0109 28013KT BECMG 0115/0117 09005KT=
D:\Input Parser\Destinations\Final\10\OMDBL12181053924840182.txt
1